Harbor View, Ohio
Current Conditions -  °F | °C
As of 3:53 AM on Tuesday 21 Oct 2014 (Local Time) from KTDZ Reporting Station
Overcast Overcast  
Wind Chill: 50°   Ceiling: 4900
Heat Index: 50°   Visibility: 10mi
Dew Point: 43°   Wind: 9mph
Humidity: 77%   Direction: 320°NW
Pressure: 29.91"   Gusts: NA
Location:  41.69°N, 83.44°W
Report Text: KTDZ 210753Z AUTO 32008KT 10SM OVC049 10/06 A2991 RMK AO2 SLP129 T01000061 TSNO
Loading
Personal Weather Stations






























Interactive Weather Map New forecast layout! Learn more

10-Day Weather Forecast

Advertisements
Track Severe Weather on mobile